Погода Пьюрана 2 недели

Пьюра, Перу

15 - 27 июля
  • 15июля
    Сегодня
    +16°
    +27°
    Ясно и безоблачно
    ВремяПогодаТемператураВлажностьДавлениеВетер, м/сВероятность осадков
    01:00Ясно и безоблачно+18°C82 %758 мм3.2 м/с3 %
    04:00Облачно с прояснениями+17°C88 %757 мм3.6 м/с3 %
    07:00Облачно с прояснениями+17°C86 %758 мм2.3 м/с3 %
    10:00Ясно и безоблачно+20°C61 %759 мм2.6 м/с3 %
    13:00Ясно и безоблачно+25°C44 %757 мм4.7 м/с3 %
    16:00Ясно и безоблачно+27°C45 %756 мм7.9 м/с3 %
    19:00Ясно и безоблачно+21°C65 %757 мм7.3 м/с3 %
    22:00Ясно и безоблачно+19°C74 %758 мм5.0 м/с3 %
  • 16июля
    Вторник
    +16°
    +27°
    Ясно и безоблачно
    ВремяПогодаТемператураВлажностьДавлениеВетер, м/сВероятность осадков
    01:00Ясно и безоблачно+18°C81 %758 мм2.9 м/с3 %
    04:00Ясно и безоблачно+17°C86 %758 мм2.8 м/с3 %
    07:00Ясно и безоблачно+17°C88 %759 мм2.2 м/с3 %
    10:00Ясно и безоблачно+19°C62 %759 мм3.5 м/с3 %
    13:00Ясно и безоблачно+24°C44 %757 мм5.0 м/с3 %
    16:00Ясно и безоблачно+27°C44 %756 мм7.2 м/с3 %
    19:00Ясно и безоблачно+21°C62 %758 мм6.9 м/с3 %
    22:00Ясно и безоблачно+19°C75 %760 мм4.9 м/с3 %
  • 17июля
    Среда
    +16°
    +27°
    Ясно и безоблачно
    ВремяПогодаТемператураВлажностьДавлениеВетер, м/сВероятность осадков
    01:00Ясно и безоблачно+18°C80 %760 мм2.8 м/с3 %
    04:00Ясно и безоблачно+17°C84 %758 мм2.7 м/с3 %
    07:00Ясно и безоблачно+17°C90 %759 мм1.8 м/с3 %
    10:00Ясно и безоблачно+20°C55 %759 мм3.1 м/с3 %
    13:00Ясно и безоблачно+25°C41 %757 мм5.2 м/с3 %
    16:00Ясно и безоблачно+27°C43 %756 мм7.2 м/с3 %
    19:00Ясно и безоблачно+21°C61 %758 мм6.4 м/с3 %
    22:00Ясно и безоблачно+19°C73 %760 мм5.0 м/с3 %
  • 18июля
    Четверг
    +16°
    +28°
    Ясно и безоблачно
    ВремяПогодаТемператураВлажностьДавлениеВетер, м/сВероятность осадков
    01:00Ясно и безоблачно+18°C83 %760 мм2.8 м/с3 %
    04:00Ясно и безоблачно+17°C91 %759 мм3.0 м/с3 %
    07:00Практически безоблачно+16°C93 %760 мм2.1 м/с3 %
    10:00Ясно и безоблачно+20°C61 %760 мм3.0 м/с3 %
    13:00Ясно и безоблачно+25°C42 %757 мм4.9 м/с3 %
    16:00Ясно и безоблачно+27°C42 %756 мм7.5 м/с3 %
    19:00Ясно и безоблачно+21°C60 %758 мм6.8 м/с2 %
    22:00Ясно и безоблачно+19°C79 %760 мм5.2 м/с2 %
Мы используем cookies
Соглашаюсь